sensor_id;sensor_type;location;lat;lon;timestamp;temperature;humidity
15231;DHT22;32569;51.762;8.564;2023-03-31T00:01:24;10.40;99.90
15231;DHT22;32569;51.762;8.564;2023-03-31T00:03:51;10.40;99.90
15231;DHT22;32569;51.762;8.564;2023-03-31T00:06:35;10.40;99.90
15231;DHT22;32569;51.762;8.564;2023-03-31T00:09:03;10.30;99.90
15231;DHT22;32569;51.762;8.564;2023-03-31T00:11:29;10.30;99.90
15231;DHT22;32569;51.762;8.564;2023-03-31T00:13:56;10.30;99.90
15231;DHT22;32569;51.762;8.564;2023-03-31T00:16:23;10.40;99.90
15231;DHT22;32569;51.762;8.564;2023-03-31T00:18:51;10.30;99.90
15231;DHT22;32569;51.762;8.564;2023-03-31T00:21:20;10.30;99.90
15231;DHT22;32569;51.762;8.564;2023-03-31T00:24:04;10.30;99.90
15231;DHT22;32569;51.762;8.564;2023-03-31T00:26:31;10.30;99.90
15231;DHT22;32569;51.762;8.564;2023-03-31T00:28:58;10.30;99.90
15231;DHT22;32569;51.762;8.564;2023-03-31T00:31:26;10.40;99.90
15231;DHT22;32569;51.762;8.564;2023-03-31T00:33:53;10.40;99.90
15231;DHT22;32569;51.762;8.564;2023-03-31T00:36:20;10.40;99.90
15231;DHT22;32569;51.762;8.564;2023-03-31T00:38:52;10.40;99.90
15231;DHT22;32569;51.762;8.564;2023-03-31T00:41:20;10.50;99.90
15231;DHT22;32569;51.762;8.564;2023-03-31T00:44:04;10.50;99.90
15231;DHT22;32569;51.762;8.564;2023-03-31T00:46:37;10.60;99.90
15231;DHT22;32569;51.762;8.564;2023-03-31T00:49:13;10.60;99.90
15231;DHT22;32569;51.762;8.564;2023-03-31T00:51:43;10.60;99.90
15231;DHT22;32569;51.762;8.564;2023-03-31T00:54:10;10.50;99.90
15231;DHT22;32569;51.762;8.564;2023-03-31T00:56:41;10.50;99.90
15231;DHT22;32569;51.762;8.564;2023-03-31T00:59:10;10.60;99.90
15231;DHT22;32569;51.762;8.564;2023-03-31T01:01:42;10.60;99.90
15231;DHT22;32569;51.762;8.564;2023-03-31T01:04:11;10.60;99.90
15231;DHT22;32569;51.762;8.564;2023-03-31T01:06:46;10.70;99.90
15231;DHT22;32569;51.762;8.564;2023-03-31T01:09:14;10.70;99.90
15231;DHT22;32569;51.762;8.564;2023-03-31T01:11:43;10.60;99.90
15231;DHT22;32569;51.762;8.564;2023-03-31T01:14:11;10.60;99.90
15231;DHT22;32569;51.762;8.564;2023-03-31T01:16:38;10.60;99.90
15231;DHT22;32569;51.762;8.564;2023-03-31T01:19:06;10.70;99.90
15231;DHT22;32569;51.762;8.564;2023-03-31T01:21:59;10.70;99.90
15231;DHT22;32569;51.762;8.564;2023-03-31T01:24:48;10.70;99.90
15231;DHT22;32569;51.762;8.564;2023-03-31T01:31:05;10.70;99.90
15231;DHT22;32569;51.762;8.564;2023-03-31T01:34:05;10.80;99.90
15231;DHT22;32569;51.762;8.564;2023-03-31T01:37:06;10.80;99.90
15231;DHT22;32569;51.762;8.564;2023-03-31T01:42:42;10.70;99.90
15231;DHT22;32569;51.762;8.564;2023-03-31T01:45:18;10.70;99.90
15231;DHT22;32569;51.762;8.564;2023-03-31T01:47:52;10.70;99.90
15231;DHT22;32569;51.762;8.564;2023-03-31T01:50:25;10.70;99.90
15231;DHT22;32569;51.762;8.564;2023-03-31T01:52:58;10.70;99.90
15231;DHT22;32569;51.762;8.564;2023-03-31T01:55:34;10.60;99.90
15231;DHT22;32569;51.762;8.564;2023-03-31T01:58:06;10.60;99.90
15231;DHT22;32569;51.762;8.564;2023-03-31T02:00:39;10.60;99.90
15231;DHT22;32569;51.762;8.564;2023-03-31T02:03:10;10.60;99.90
15231;DHT22;32569;51.762;8.564;2023-03-31T02:05:42;10.60;99.90
15231;DHT22;32569;51.762;8.564;2023-03-31T02:08:13;10.60;99.90
15231;DHT22;32569;51.762;8.564;2023-03-31T02:10:43;10.60;99.90
15231;DHT22;32569;51.762;8.564;2023-03-31T02:13:11;10.60;99.90
15231;DHT22;32569;51.762;8.564;2023-03-31T02:15:42;10.60;99.90
15231;DHT22;32569;51.762;8.564;2023-03-31T02:18:15;10.60;99.90
15231;DHT22;32569;51.762;8.564;2023-03-31T02:20:45;10.70;99.90
15231;DHT22;32569;51.762;8.564;2023-03-31T02:23:14;10.70;99.90
15231;DHT22;32569;51.762;8.564;2023-03-31T02:25:47;10.70;99.90
15231;DHT22;32569;51.762;8.564;2023-03-31T02:28:17;10.60;99.90
15231;DHT22;32569;51.762;8.564;2023-03-31T02:30:51;10.60;99.90
15231;DHT22;32569;51.762;8.564;2023-03-31T02:33:19;10.70;99.90
15231;DHT22;32569;51.762;8.564;2023-03-31T02:35:46;10.70;99.90
15231;DHT22;32569;51.762;8.564;2023-03-31T02:38:13;10.80;99.90
15231;DHT22;32569;51.762;8.564;2023-03-31T02:40:40;10.80;99.90
15231;DHT22;32569;51.762;8.564;2023-03-31T02:43:08;10.70;99.90
15231;DHT22;32569;51.762;8.564;2023-03-31T02:45:43;10.80;99.90
15231;DHT22;32569;51.762;8.564;2023-03-31T02:48:14;10.80;99.90
15231;DHT22;32569;51.762;8.564;2023-03-31T02:50:53;10.80;99.90
15231;DHT22;32569;51.762;8.564;2023-03-31T02:53:30;10.80;99.90
15231;DHT22;32569;51.762;8.564;2023-03-31T02:56:15;10.80;99.90
15231;DHT22;32569;51.762;8.564;2023-03-31T02:58:59;10.80;99.90
15231;DHT22;32569;51.762;8.564;2023-03-31T03:01:39;10.80;99.90
15231;DHT22;32569;51.762;8.564;2023-03-31T03:04:17;10.80;99.90
15231;DHT22;32569;51.762;8.564;2023-03-31T03:06:56;10.90;99.90
15231;DHT22;32569;51.762;8.564;2023-03-31T03:09:41;10.80;99.90
15231;DHT22;32569;51.762;8.564;2023-03-31T03:12:14;10.80;99.90
15231;DHT22;32569;51.762;8.564;2023-03-31T03:14:46;10.80;99.90
15231;DHT22;32569;51.762;8.564;2023-03-31T03:17:19;10.70;99.90
15231;DHT22;32569;51.762;8.564;2023-03-31T03:19:53;10.70;99.90
15231;DHT22;32569;51.762;8.564;2023-03-31T03:22:20;10.60;99.90
15231;DHT22;32569;51.762;8.564;2023-03-31T03:24:47;10.60;99.90
15231;DHT22;32569;51.762;8.564;2023-03-31T03:27:14;10.50;99.90
15231;DHT22;32569;51.762;8.564;2023-03-31T03:29:41;10.60;99.90
15231;DHT22;32569;51.762;8.564;2023-03-31T03:32:09;10.50;99.90
15231;DHT22;32569;51.762;8.564;2023-03-31T03:34:42;10.50;99.90
15231;DHT22;32569;51.762;8.564;2023-03-31T03:37:09;10.50;99.90
15231;DHT22;32569;51.762;8.564;2023-03-31T03:39:36;10.50;99.90
15231;DHT22;32569;51.762;8.564;2023-03-31T03:42:02;10.40;99.90
15231;DHT22;32569;51.762;8.564;2023-03-31T03:44:29;10.50;99.90
15231;DHT22;32569;51.762;8.564;2023-03-31T03:46:56;10.50;99.90
15231;DHT22;32569;51.762;8.564;2023-03-31T03:49:24;10.50;99.90
15231;DHT22;32569;51.762;8.564;2023-03-31T03:51:51;10.40;99.90
15231;DHT22;32569;51.762;8.564;2023-03-31T03:54:17;10.50;99.90
15231;DHT22;32569;51.762;8.564;2023-03-31T03:56:46;10.60;99.90
15231;DHT22;32569;51.762;8.564;2023-03-31T03:59:13;10.50;99.90
15231;DHT22;32569;51.762;8.564;2023-03-31T04:01:43;10.50;99.90
15231;DHT22;32569;51.762;8.564;2023-03-31T04:04:09;10.50;99.90
15231;DHT22;32569;51.762;8.564;2023-03-31T04:06:37;10.50;99.90
15231;DHT22;32569;51.762;8.564;2023-03-31T04:09:04;10.40;99.90
15231;DHT22;32569;51.762;8.564;2023-03-31T04:11:30;10.40;99.90
15231;DHT22;32569;51.762;8.564;2023-03-31T04:13:57;10.50;99.90
15231;DHT22;32569;51.762;8.564;2023-03-31T04:16:24;10.50;99.90
15231;DHT22;32569;51.762;8.564;2023-03-31T04:18:50;10.40;99.90
15231;DHT22;32569;51.762;8.564;2023-03-31T04:21:21;10.40;99.90
15231;DHT22;32569;51.762;8.564;2023-03-31T04:23:51;10.30;99.90
15231;DHT22;32569;51.762;8.564;2023-03-31T04:26:24;10.30;99.90
15231;DHT22;32569;51.762;8.564;2023-03-31T04:28:55;10.30;99.90
15231;DHT22;32569;51.762;8.564;2023-03-31T04:31:25;10.30;99.90
15231;DHT22;32569;51.762;8.564;2023-03-31T04:33:55;10.30;99.90
15231;DHT22;32569;51.762;8.564;2023-03-31T04:36:25;10.30;99.90
15231;DHT22;32569;51.762;8.564;2023-03-31T04:38:54;10.30;99.90
15231;DHT22;32569;51.762;8.564;2023-03-31T04:41:27;10.30;99.90
15231;DHT22;32569;51.762;8.564;2023-03-31T04:43:53;10.30;99.90
15231;DHT22;32569;51.762;8.564;2023-03-31T04:46:20;10.30;99.90
15231;DHT22;32569;51.762;8.564;2023-03-31T04:48:47;10.30;99.90
15231;DHT22;32569;51.762;8.564;2023-03-31T04:51:14;10.30;99.90
15231;DHT22;32569;51.762;8.564;2023-03-31T04:53:40;10.30;99.90
15231;DHT22;32569;51.762;8.564;2023-03-31T04:56:08;10.30;99.90
15231;DHT22;32569;51.762;8.564;2023-03-31T04:58:35;10.30;99.90
15231;DHT22;32569;51.762;8.564;2023-03-31T05:01:02;10.30;99.90
15231;DHT22;32569;51.762;8.564;2023-03-31T05:03:30;10.30;99.90
15231;DHT22;32569;51.762;8.564;2023-03-31T05:05:57;10.30;99.90
15231;DHT22;32569;51.762;8.564;2023-03-31T05:08:24;10.40;99.90
15231;DHT22;32569;51.762;8.564;2023-03-31T05:10:51;10.30;99.90
15231;DHT22;32569;51.762;8.564;2023-03-31T05:13:19;10.30;99.90
15231;DHT22;32569;51.762;8.564;2023-03-31T05:15:46;10.40;99.90
15231;DHT22;32569;51.762;8.564;2023-03-31T05:18:15;10.30;99.90
15231;DHT22;32569;51.762;8.564;2023-03-31T05:20:42;10.30;99.90
15231;DHT22;32569;51.762;8.564;2023-03-31T05:23:08;10.30;99.90
15231;DHT22;32569;51.762;8.564;2023-03-31T05:25:35;10.30;99.90
15231;DHT22;32569;51.762;8.564;2023-03-31T05:28:02;10.30;99.90
15231;DHT22;32569;51.762;8.564;2023-03-31T05:30:30;10.30;99.90
15231;DHT22;32569;51.762;8.564;2023-03-31T05:32:57;10.30;99.90
15231;DHT22;32569;51.762;8.564;2023-03-31T05:35:24;10.30;99.90
15231;DHT22;32569;51.762;8.564;2023-03-31T05:37:51;10.30;99.90
15231;DHT22;32569;51.762;8.564;2023-03-31T05:40:17;10.30;99.90
15231;DHT22;32569;51.762;8.564;2023-03-31T05:42:44;10.40;99.90
15231;DHT22;32569;51.762;8.564;2023-03-31T05:45:11;10.40;99.90
15231;DHT22;32569;51.762;8.564;2023-03-31T05:47:39;10.40;99.90
15231;DHT22;32569;51.762;8.564;2023-03-31T05:50:06;10.50;99.90
15231;DHT22;32569;51.762;8.564;2023-03-31T05:52:33;10.50;99.90
15231;DHT22;32569;51.762;8.564;2023-03-31T05:55:00;10.50;99.90
15231;DHT22;32569;51.762;8.564;2023-03-31T05:57:27;10.50;99.90
15231;DHT22;32569;51.762;8.564;2023-03-31T05:59:54;10.60;99.90
15231;DHT22;32569;51.762;8.564;2023-03-31T06:02:20;10.50;99.90
15231;DHT22;32569;51.762;8.564;2023-03-31T06:04:48;10.50;99.90
15231;DHT22;32569;51.762;8.564;2023-03-31T06:07:16;10.50;99.90
15231;DHT22;32569;51.762;8.564;2023-03-31T06:09:44;10.50;99.90
15231;DHT22;32569;51.762;8.564;2023-03-31T06:12:11;10.60;99.90
15231;DHT22;32569;51.762;8.564;2023-03-31T06:14:37;10.60;99.90
15231;DHT22;32569;51.762;8.564;2023-03-31T06:17:04;10.60;99.90
15231;DHT22;32569;51.762;8.564;2023-03-31T06:19:31;10.60;99.90
15231;DHT22;32569;51.762;8.564;2023-03-31T06:21:59;10.60;99.90
15231;DHT22;32569;51.762;8.564;2023-03-31T06:24:25;10.60;99.90
15231;DHT22;32569;51.762;8.564;2023-03-31T06:26:52;10.70;99.90
15231;DHT22;32569;51.762;8.564;2023-03-31T06:29:19;10.70;99.90
15231;DHT22;32569;51.762;8.564;2023-03-31T06:31:45;10.60;99.90
15231;DHT22;32569;51.762;8.564;2023-03-31T06:34:12;10.70;99.90
15231;DHT22;32569;51.762;8.564;2023-03-31T06:36:39;10.70;99.90
15231;DHT22;32569;51.762;8.564;2023-03-31T06:39:07;10.60;99.90
15231;DHT22;32569;51.762;8.564;2023-03-31T06:41:34;10.70;99.90
15231;DHT22;32569;51.762;8.564;2023-03-31T06:44:01;10.70;99.90
15231;DHT22;32569;51.762;8.564;2023-03-31T06:46:27;10.70;99.90
15231;DHT22;32569;51.762;8.564;2023-03-31T06:48:54;10.70;99.90
15231;DHT22;32569;51.762;8.564;2023-03-31T06:51:21;10.60;99.90
15231;DHT22;32569;51.762;8.564;2023-03-31T06:53:47;10.60;99.90
15231;DHT22;32569;51.762;8.564;2023-03-31T06:56:15;10.60;99.90
15231;DHT22;32569;51.762;8.564;2023-03-31T06:58:42;10.60;99.90
15231;DHT22;32569;51.762;8.564;2023-03-31T07:01:08;10.60;99.90
15231;DHT22;32569;51.762;8.564;2023-03-31T07:03:35;10.60;99.90
15231;DHT22;32569;51.762;8.564;2023-03-31T07:06:02;10.50;99.90
15231;DHT22;32569;51.762;8.564;2023-03-31T07:08:29;10.60;99.90
15231;DHT22;32569;51.762;8.564;2023-03-31T07:10:58;10.60;99.90
15231;DHT22;32569;51.762;8.564;2023-03-31T07:13:27;10.60;99.90
15231;DHT22;32569;51.762;8.564;2023-03-31T07:15:54;10.70;99.90
15231;DHT22;32569;51.762;8.564;2023-03-31T07:18:21;10.70;99.90
15231;DHT22;32569;51.762;8.564;2023-03-31T07:20:50;10.80;99.90
15231;DHT22;32569;51.762;8.564;2023-03-31T07:23:17;10.90;99.90
15231;DHT22;32569;51.762;8.564;2023-03-31T07:25:45;10.80;99.90
15231;DHT22;32569;51.762;8.564;2023-03-31T07:28:12;10.80;99.90
15231;DHT22;32569;51.762;8.564;2023-03-31T07:30:40;10.80;99.90
15231;DHT22;32569;51.762;8.564;2023-03-31T07:33:08;10.80;99.90
15231;DHT22;32569;51.762;8.564;2023-03-31T07:35:37;10.80;99.90
15231;DHT22;32569;51.762;8.564;2023-03-31T07:38:04;10.80;99.90
15231;DHT22;32569;51.762;8.564;2023-03-31T07:40:30;10.90;99.90
15231;DHT22;32569;51.762;8.564;2023-03-31T07:42:57;10.90;99.90
15231;DHT22;32569;51.762;8.564;2023-03-31T07:45:25;11.00;99.90
15231;DHT22;32569;51.762;8.564;2023-03-31T07:47:53;10.90;99.90
15231;DHT22;32569;51.762;8.564;2023-03-31T07:50:21;10.90;99.90
15231;DHT22;32569;51.762;8.564;2023-03-31T07:52:50;10.90;99.90
15231;DHT22;32569;51.762;8.564;2023-03-31T07:55:16;11.00;99.90
15231;DHT22;32569;51.762;8.564;2023-03-31T07:57:44;10.90;99.90
15231;DHT22;32569;51.762;8.564;2023-03-31T08:00:13;11.00;99.90
15231;DHT22;32569;51.762;8.564;2023-03-31T08:02:40;11.10;99.90
15231;DHT22;32569;51.762;8.564;2023-03-31T08:05:12;11.10;99.90
15231;DHT22;32569;51.762;8.564;2023-03-31T08:07:41;11.20;99.90
15231;DHT22;32569;51.762;8.564;2023-03-31T08:10:11;11.20;99.90
15231;DHT22;32569;51.762;8.564;2023-03-31T08:12:38;11.20;99.90
15231;DHT22;32569;51.762;8.564;2023-03-31T08:15:06;11.20;99.90
15231;DHT22;32569;51.762;8.564;2023-03-31T08:17:33;11.20;99.90
15231;DHT22;32569;51.762;8.564;2023-03-31T08:20:00;11.10;99.90
15231;DHT22;32569;51.762;8.564;2023-03-31T08:22:28;11.10;99.90
15231;DHT22;32569;51.762;8.564;2023-03-31T08:24:54;11.10;99.90
15231;DHT22;32569;51.762;8.564;2023-03-31T08:27:21;11.00;99.90
15231;DHT22;32569;51.762;8.564;2023-03-31T08:29:47;10.90;99.90
15231;DHT22;32569;51.762;8.564;2023-03-31T08:32:14;10.90;99.90
15231;DHT22;32569;51.762;8.564;2023-03-31T08:34:41;10.80;99.90
15231;DHT22;32569;51.762;8.564;2023-03-31T08:37:08;10.60;99.90
15231;DHT22;32569;51.762;8.564;2023-03-31T08:39:36;10.60;99.90
15231;DHT22;32569;51.762;8.564;2023-03-31T08:42:06;10.50;99.90
15231;DHT22;32569;51.762;8.564;2023-03-31T08:44:36;10.50;99.90
15231;DHT22;32569;51.762;8.564;2023-03-31T08:47:06;10.60;99.90
15231;DHT22;32569;51.762;8.564;2023-03-31T08:49:39;10.60;99.90
15231;DHT22;32569;51.762;8.564;2023-03-31T08:52:11;10.60;99.90
15231;DHT22;32569;51.762;8.564;2023-03-31T08:54:42;10.60;99.90
15231;DHT22;32569;51.762;8.564;2023-03-31T08:57:14;10.60;99.90
15231;DHT22;32569;51.762;8.564;2023-03-31T08:59:43;10.60;99.90
15231;DHT22;32569;51.762;8.564;2023-03-31T09:02:20;10.60;99.90
15231;DHT22;32569;51.762;8.564;2023-03-31T09:05:21;10.50;99.90
15231;DHT22;32569;51.762;8.564;2023-03-31T09:07:55;10.40;99.90
15231;DHT22;32569;51.762;8.564;2023-03-31T09:10:34;10.40;99.90
15231;DHT22;32569;51.762;8.564;2023-03-31T09:13:13;10.40;99.90
15231;DHT22;32569;51.762;8.564;2023-03-31T09:15:48;10.30;99.90
15231;DHT22;32569;51.762;8.564;2023-03-31T09:18:24;10.40;99.90
15231;DHT22;32569;51.762;8.564;2023-03-31T09:20:54;10.50;99.90
15231;DHT22;32569;51.762;8.564;2023-03-31T09:23:26;10.40;99.90
15231;DHT22;32569;51.762;8.564;2023-03-31T09:25:57;10.40;99.90
15231;DHT22;32569;51.762;8.564;2023-03-31T09:28:30;10.40;99.90
15231;DHT22;32569;51.762;8.564;2023-03-31T09:30:59;10.40;99.90
15231;DHT22;32569;51.762;8.564;2023-03-31T09:33:30;10.40;99.90
15231;DHT22;32569;51.762;8.564;2023-03-31T09:35:57;10.40;99.90
15231;DHT22;32569;51.762;8.564;2023-03-31T09:38:24;10.40;99.90
15231;DHT22;32569;51.762;8.564;2023-03-31T09:40:55;10.40;99.90
15231;DHT22;32569;51.762;8.564;2023-03-31T09:43:24;10.50;99.90
15231;DHT22;32569;51.762;8.564;2023-03-31T09:45:51;10.60;99.90
15231;DHT22;32569;51.762;8.564;2023-03-31T09:48:22;10.60;99.90
15231;DHT22;32569;51.762;8.564;2023-03-31T09:50:51;10.70;99.90
15231;DHT22;32569;51.762;8.564;2023-03-31T09:53:22;10.70;99.90
15231;DHT22;32569;51.762;8.564;2023-03-31T09:55:52;10.70;99.90
15231;DHT22;32569;51.762;8.564;2023-03-31T09:58:22;10.70;99.90
15231;DHT22;32569;51.762;8.564;2023-03-31T10:00:58;10.70;99.90
15231;DHT22;32569;51.762;8.564;2023-03-31T10:03:26;10.80;99.90
15231;DHT22;32569;51.762;8.564;2023-03-31T10:05:55;10.90;99.90
15231;DHT22;32569;51.762;8.564;2023-03-31T10:08:26;11.00;99.90
15231;DHT22;32569;51.762;8.564;2023-03-31T10:10:56;11.00;99.90
15231;DHT22;32569;51.762;8.564;2023-03-31T10:13:25;11.00;99.90
15231;DHT22;32569;51.762;8.564;2023-03-31T10:15:54;10.90;99.90
15231;DHT22;32569;51.762;8.564;2023-03-31T10:18:32;10.90;99.90
15231;DHT22;32569;51.762;8.564;2023-03-31T10:21:00;10.80;99.90
15231;DHT22;32569;51.762;8.564;2023-03-31T10:23:29;10.80;99.90
15231;DHT22;32569;51.762;8.564;2023-03-31T10:25:57;10.80;99.90
15231;DHT22;32569;51.762;8.564;2023-03-31T10:28:26;10.70;99.90
15231;DHT22;32569;51.762;8.564;2023-03-31T10:30:57;10.70;99.90
15231;DHT22;32569;51.762;8.564;2023-03-31T10:33:29;10.60;99.90
15231;DHT22;32569;51.762;8.564;2023-03-31T10:36:00;10.60;99.90
15231;DHT22;32569;51.762;8.564;2023-03-31T10:38:30;10.60;99.90
15231;DHT22;32569;51.762;8.564;2023-03-31T10:40:58;10.50;99.90
15231;DHT22;32569;51.762;8.564;2023-03-31T10:43:29;10.30;99.90
15231;DHT22;32569;51.762;8.564;2023-03-31T10:45:59;10.10;99.90
15231;DHT22;32569;51.762;8.564;2023-03-31T10:48:28;10.10;99.90
15231;DHT22;32569;51.762;8.564;2023-03-31T10:50:58;10.30;99.90
15231;DHT22;32569;51.762;8.564;2023-03-31T10:53:26;10.30;99.90
15231;DHT22;32569;51.762;8.564;2023-03-31T10:56:01;10.30;99.90
15231;DHT22;32569;51.762;8.564;2023-03-31T10:58:42;10.30;99.90
15231;DHT22;32569;51.762;8.564;2023-03-31T11:01:21;10.40;99.90
15231;DHT22;32569;51.762;8.564;2023-03-31T11:04:15;10.60;99.90
15231;DHT22;32569;51.762;8.564;2023-03-31T11:06:51;10.80;99.90
15231;DHT22;32569;51.762;8.564;2023-03-31T11:09:33;11.10;99.90
15231;DHT22;32569;51.762;8.564;2023-03-31T11:12:10;11.30;99.90
15231;DHT22;32569;51.762;8.564;2023-03-31T11:14:49;11.60;99.90
15231;DHT22;32569;51.762;8.564;2023-03-31T11:17:31;11.90;99.90
15231;DHT22;32569;51.762;8.564;2023-03-31T11:20:10;12.20;99.90
15231;DHT22;32569;51.762;8.564;2023-03-31T11:22:45;12.40;99.90
15231;DHT22;32569;51.762;8.564;2023-03-31T11:25:22;12.60;99.90
15231;DHT22;32569;51.762;8.564;2023-03-31T11:28:09;12.80;99.90
15231;DHT22;32569;51.762;8.564;2023-03-31T11:30:46;12.90;99.90
15231;DHT22;32569;51.762;8.564;2023-03-31T11:33:36;13.00;99.90
15231;DHT22;32569;51.762;8.564;2023-03-31T11:36:15;13.10;99.90
15231;DHT22;32569;51.762;8.564;2023-03-31T11:38:54;13.10;99.90
15231;DHT22;32569;51.762;8.564;2023-03-31T11:41:31;13.10;99.90
15231;DHT22;32569;51.762;8.564;2023-03-31T11:44:01;13.20;99.90
15231;DHT22;32569;51.762;8.564;2023-03-31T11:46:36;13.20;99.90
15231;DHT22;32569;51.762;8.564;2023-03-31T11:49:10;13.10;99.90
15231;DHT22;32569;51.762;8.564;2023-03-31T11:51:43;13.10;99.90
15231;DHT22;32569;51.762;8.564;2023-03-31T11:54:17;13.10;99.90
15231;DHT22;32569;51.762;8.564;2023-03-31T11:56:45;13.10;99.90
15231;DHT22;32569;51.762;8.564;2023-03-31T11:59:15;13.10;99.90
15231;DHT22;32569;51.762;8.564;2023-03-31T12:01:47;13.10;99.90
15231;DHT22;32569;51.762;8.564;2023-03-31T12:04:25;13.00;99.90
15231;DHT22;32569;51.762;8.564;2023-03-31T12:06:59;13.10;99.90
15231;DHT22;32569;51.762;8.564;2023-03-31T12:09:33;13.00;99.90
15231;DHT22;32569;51.762;8.564;2023-03-31T12:12:04;13.10;99.90
15231;DHT22;32569;51.762;8.564;2023-03-31T12:14:34;13.10;99.90
15231;DHT22;32569;51.762;8.564;2023-03-31T12:17:09;13.00;99.90
15231;DHT22;32569;51.762;8.564;2023-03-31T12:19:42;13.00;99.90
15231;DHT22;32569;51.762;8.564;2023-03-31T12:22:14;12.90;99.90
15231;DHT22;32569;51.762;8.564;2023-03-31T12:24:42;13.00;99.90
15231;DHT22;32569;51.762;8.564;2023-03-31T12:27:13;13.00;99.90
15231;DHT22;32569;51.762;8.564;2023-03-31T12:29:45;13.00;99.90
15231;DHT22;32569;51.762;8.564;2023-03-31T12:32:17;13.00;99.90
15231;DHT22;32569;51.762;8.564;2023-03-31T12:34:47;13.10;99.90
15231;DHT22;32569;51.762;8.564;2023-03-31T12:37:43;13.20;99.90
15231;DHT22;32569;51.762;8.564;2023-03-31T12:40:17;13.30;99.90
15231;DHT22;32569;51.762;8.564;2023-03-31T12:42:57;13.30;99.90
15231;DHT22;32569;51.762;8.564;2023-03-31T12:45:27;13.30;99.90
15231;DHT22;32569;51.762;8.564;2023-03-31T12:48:33;13.40;99.90
15231;DHT22;32569;51.762;8.564;2023-03-31T12:51:16;13.40;99.90
15231;DHT22;32569;51.762;8.564;2023-03-31T12:54:01;13.40;99.90
15231;DHT22;32569;51.762;8.564;2023-03-31T12:57:07;13.40;99.90
15231;DHT22;32569;51.762;8.564;2023-03-31T12:59:40;13.10;99.90
15231;DHT22;32569;51.762;8.564;2023-03-31T13:02:23;12.80;99.90
15231;DHT22;32569;51.762;8.564;2023-03-31T13:04:51;12.30;99.90
15231;DHT22;32569;51.762;8.564;2023-03-31T13:07:39;12.10;99.90
15231;DHT22;32569;51.762;8.564;2023-03-31T13:10:25;12.00;99.90
15231;DHT22;32569;51.762;8.564;2023-03-31T13:13:12;11.90;99.90
15231;DHT22;32569;51.762;8.564;2023-03-31T13:15:40;11.80;99.90
15231;DHT22;32569;51.762;8.564;2023-03-31T13:18:19;11.80;99.90
15231;DHT22;32569;51.762;8.564;2023-03-31T13:20:57;11.70;99.90
15231;DHT22;32569;51.762;8.564;2023-03-31T13:23:24;11.60;99.90
15231;DHT22;32569;51.762;8.564;2023-03-31T13:25:53;11.60;99.90
15231;DHT22;32569;51.762;8.564;2023-03-31T13:28:32;11.60;99.90
15231;DHT22;32569;51.762;8.564;2023-03-31T13:31:01;11.50;99.90
15231;DHT22;32569;51.762;8.564;2023-03-31T13:33:31;11.40;99.90
15231;DHT22;32569;51.762;8.564;2023-03-31T13:36:25;11.40;99.90
15231;DHT22;32569;51.762;8.564;2023-03-31T13:39:06;11.40;99.90
15231;DHT22;32569;51.762;8.564;2023-03-31T13:41:45;11.40;99.90
15231;DHT22;32569;51.762;8.564;2023-03-31T13:44:38;11.30;99.90
15231;DHT22;32569;51.762;8.564;2023-03-31T13:53:04;11.30;99.90
15231;DHT22;32569;51.762;8.564;2023-03-31T13:55:57;11.30;99.90
15231;DHT22;32569;51.762;8.564;2023-03-31T14:01:43;11.30;99.90
15231;DHT22;32569;51.762;8.564;2023-03-31T14:07:06;11.20;99.90
15231;DHT22;32569;51.762;8.564;2023-03-31T14:09:35;11.30;99.90
15231;DHT22;32569;51.762;8.564;2023-03-31T14:12:18;11.30;99.90
15231;DHT22;32569;51.762;8.564;2023-03-31T14:14:46;11.40;99.90
15231;DHT22;32569;51.762;8.564;2023-03-31T14:17:13;11.50;99.90
15231;DHT22;32569;51.762;8.564;2023-03-31T14:19:57;11.70;99.90
15231;DHT22;32569;51.762;8.564;2023-03-31T14:22:35;11.70;99.90
15231;DHT22;32569;51.762;8.564;2023-03-31T14:25:10;11.90;99.90
15231;DHT22;32569;51.762;8.564;2023-03-31T14:27:50;11.90;99.90
15231;DHT22;32569;51.762;8.564;2023-03-31T14:30:29;11.90;99.90
15231;DHT22;32569;51.762;8.564;2023-03-31T14:33:07;11.90;99.90
15231;DHT22;32569;51.762;8.564;2023-03-31T14:35:40;11.90;99.90
15231;DHT22;32569;51.762;8.564;2023-03-31T14:38:12;11.90;99.90
15231;DHT22;32569;51.762;8.564;2023-03-31T14:40:46;12.00;99.90
15231;DHT22;32569;51.762;8.564;2023-03-31T14:43:18;12.10;99.90
15231;DHT22;32569;51.762;8.564;2023-03-31T14:45:46;12.10;99.90
15231;DHT22;32569;51.762;8.564;2023-03-31T14:48:14;12.20;99.90
15231;DHT22;32569;51.762;8.564;2023-03-31T14:50:42;12.20;99.90
15231;DHT22;32569;51.762;8.564;2023-03-31T14:53:13;12.20;99.90
15231;DHT22;32569;51.762;8.564;2023-03-31T14:55:41;12.20;99.90
15231;DHT22;32569;51.762;8.564;2023-03-31T14:58:13;12.20;99.90
15231;DHT22;32569;51.762;8.564;2023-03-31T15:00:40;12.20;99.90
15231;DHT22;32569;51.762;8.564;2023-03-31T15:03:11;12.30;99.90
15231;DHT22;32569;51.762;8.564;2023-03-31T15:05:39;12.30;99.90
15231;DHT22;32569;51.762;8.564;2023-03-31T15:08:10;12.40;99.90
15231;DHT22;32569;51.762;8.564;2023-03-31T15:10:39;12.30;99.90
15231;DHT22;32569;51.762;8.564;2023-03-31T15:13:07;12.30;99.90
15231;DHT22;32569;51.762;8.564;2023-03-31T15:15:36;12.40;99.90
15231;DHT22;32569;51.762;8.564;2023-03-31T15:18:03;12.50;99.90
15231;DHT22;32569;51.762;8.564;2023-03-31T15:20:35;12.50;99.90
15231;DHT22;32569;51.762;8.564;2023-03-31T15:23:04;12.50;99.90
15231;DHT22;32569;51.762;8.564;2023-03-31T15:25:34;12.50;99.90
15231;DHT22;32569;51.762;8.564;2023-03-31T15:28:03;12.50;99.90
15231;DHT22;32569;51.762;8.564;2023-03-31T15:30:31;12.60;99.90
15231;DHT22;32569;51.762;8.564;2023-03-31T15:33:00;12.60;99.90
15231;DHT22;32569;51.762;8.564;2023-03-31T15:35:29;12.60;99.90
15231;DHT22;32569;51.762;8.564;2023-03-31T15:37:58;12.70;99.90
15231;DHT22;32569;51.762;8.564;2023-03-31T15:40:27;12.70;99.90
15231;DHT22;32569;51.762;8.564;2023-03-31T15:42:56;12.70;99.90
15231;DHT22;32569;51.762;8.564;2023-03-31T15:45:36;12.70;99.90
15231;DHT22;32569;51.762;8.564;2023-03-31T15:48:08;12.60;99.90
15231;DHT22;32569;51.762;8.564;2023-03-31T15:50:40;12.70;99.90
15231;DHT22;32569;51.762;8.564;2023-03-31T15:53:23;12.70;99.90
15231;DHT22;32569;51.762;8.564;2023-03-31T15:55:53;12.70;99.90
15231;DHT22;32569;51.762;8.564;2023-03-31T15:58:24;12.70;99.90
15231;DHT22;32569;51.762;8.564;2023-03-31T16:01:10;12.70;99.90
15231;DHT22;32569;51.762;8.564;2023-03-31T16:03:41;12.70;99.90
15231;DHT22;32569;51.762;8.564;2023-03-31T16:06:15;12.70;99.90
15231;DHT22;32569;51.762;8.564;2023-03-31T16:08:44;12.70;99.90
15231;DHT22;32569;51.762;8.564;2023-03-31T16:11:15;12.80;99.90
15231;DHT22;32569;51.762;8.564;2023-03-31T16:13:47;12.80;99.90
15231;DHT22;32569;51.762;8.564;2023-03-31T16:16:17;12.80;99.90